createdAt,value
2022-11-30T00:02:40.570Z,7.35
2022-11-30T00:07:42.890Z,7.02
2022-11-30T00:12:44.783Z,7.47
2022-11-30T00:17:47.703Z,7.22
2022-11-30T00:22:49.708Z,7.28
2022-11-30T00:27:52.312Z,7.37
2022-11-30T00:32:57.907Z,7.44
2022-11-30T00:38:03.163Z,6.97
2022-11-30T00:43:05.033Z,7.47
2022-11-30T00:48:07.031Z,7.76
2022-11-30T00:53:08.980Z,7.59
2022-11-30T00:58:12.025Z,9.04
2022-11-30T01:03:15.676Z,8.14
2022-11-30T01:08:17.810Z,8.27
2022-11-30T01:13:19.768Z,7.83
2022-11-30T01:18:21.831Z,6.63
2022-11-30T01:23:23.702Z,6.36
2022-11-30T01:28:25.751Z,6.41
2022-11-30T01:33:27.706Z,6.98
2022-11-30T01:38:38.867Z,6.98
2022-11-30T01:43:41.236Z,6.55
2022-11-30T01:48:43.280Z,7.13
2022-11-30T01:53:45.614Z,8.14
2022-11-30T01:58:54.175Z,7.64
2022-11-30T02:04:11.093Z,7.07
2022-11-30T02:09:13.836Z,6.60
2022-11-30T02:14:56.393Z,5.98
2022-11-30T02:19:58.395Z,6.26
2022-11-30T02:25:20.253Z,5.83
2022-11-30T02:30:23.673Z,6.69
2022-11-30T02:35:30.265Z,6.72
2022-11-30T02:40:32.500Z,6.42
2022-11-30T02:46:05.288Z,6.73
2022-11-30T02:51:10.656Z,6.90
2022-11-30T02:56:12.637Z,7.02
2022-11-30T03:01:14.664Z,6.33
2022-11-30T03:06:16.626Z,6.22
2022-11-30T03:11:18.451Z,5.56
2022-11-30T03:16:20.440Z,6.20
2022-11-30T03:21:22.387Z,5.51
2022-11-30T03:26:24.311Z,5.49
2022-11-30T03:31:26.394Z,4.98
2022-11-30T03:36:28.331Z,5.21
2022-11-30T03:41:30.305Z,5.60
2022-11-30T03:46:32.251Z,4.85
2022-11-30T03:51:34.420Z,5.44
2022-11-30T03:56:36.422Z,5.20
2022-11-30T04:01:40.940Z,5.55
2022-11-30T04:06:42.923Z,5.93
2022-11-30T04:11:44.803Z,7.11
2022-11-30T04:16:46.694Z,5.89
2022-11-30T04:21:48.613Z,6.56
2022-11-30T04:26:50.577Z,6.55
2022-11-30T04:31:52.615Z,7.01
2022-11-30T04:36:59.968Z,8.18
2022-11-30T04:42:02.285Z,8.57
2022-11-30T04:47:04.279Z,8.65
2022-11-30T04:52:06.246Z,9.72
2022-11-30T04:57:08.147Z,9.23
2022-11-30T05:02:10.469Z,9.02
2022-11-30T05:07:12.406Z,9.19
2022-11-30T05:12:14.267Z,9.66
2022-11-30T05:17:16.230Z,9.66
2022-11-30T05:22:18.169Z,10.22
2022-11-30T05:27:22.660Z,11.53
2022-11-30T05:32:25.019Z,12.78
2022-11-30T05:37:27.065Z,12.57
2022-11-30T05:42:28.965Z,11.97
2022-11-30T05:47:30.837Z,13.41
2022-11-30T05:52:32.763Z,13.78
2022-11-30T05:57:39.335Z,13.06
2022-11-30T06:02:41.584Z,13.51
2022-11-30T06:07:43.788Z,14.34
2022-11-30T06:12:46.347Z,15.03
2022-11-30T06:17:48.256Z,15.39
2022-11-30T06:22:50.263Z,15.18
2022-11-30T06:27:53.051Z,15.18
2022-11-30T06:33:01.118Z,15.14
2022-11-30T06:38:05.459Z,15.19
2022-11-30T06:43:07.419Z,14.89
2022-11-30T06:48:09.632Z,15.50
2022-11-30T06:53:11.493Z,15.16
2022-11-30T06:58:13.357Z,15.32
2022-11-30T07:03:15.488Z,14.24
2022-11-30T07:08:18.083Z,13.78
2022-11-30T07:13:20.093Z,13.13
2022-11-30T07:18:24.788Z,12.99
2022-11-30T07:23:55.875Z,12.46
2022-11-30T07:28:59.040Z,10.92
2022-11-30T07:34:07.102Z,10.33
2022-11-30T07:39:08.963Z,10.00
2022-11-30T07:44:14.133Z,10.96
2022-11-30T07:49:16.328Z,10.95
2022-11-30T07:54:18.297Z,10.59
2022-11-30T07:59:20.220Z,10.04
2022-11-30T08:04:22.272Z,11.42
2022-11-30T08:09:24.332Z,9.86
2022-11-30T08:14:27.231Z,11.16
2022-11-30T08:19:29.160Z,10.56
2022-11-30T08:24:31.237Z,10.81
2022-11-30T08:29:33.350Z,11.23
2022-11-30T08:34:35.571Z,11.23
2022-11-30T08:39:37.563Z,10.61
2022-11-30T08:44:39.604Z,10.66
2022-11-30T08:49:41.831Z,10.64
2022-11-30T08:54:45.885Z,10.37
2022-11-30T08:59:49.051Z,10.17
2022-11-30T09:04:51.826Z,10.42
2022-11-30T09:09:53.800Z,9.83
2022-11-30T09:14:58.207Z,10.88
2022-11-30T09:20:01.301Z,12.55
2022-11-30T09:25:03.356Z,12.23
2022-11-30T09:30:06.033Z,12.36
2022-11-30T09:35:12.838Z,13.18
2022-11-30T09:40:24.949Z,13.37
2022-11-30T09:45:32.236Z,13.73
2022-11-30T09:50:39.916Z,12.66
2022-11-30T09:55:43.804Z,12.13
2022-11-30T10:00:45.688Z,13.03
2022-11-30T10:05:56.955Z,12.50
2022-11-30T10:11:22.395Z,12.82
2022-11-30T10:16:30.392Z,13.23
2022-11-30T10:21:50.988Z,13.82
2022-11-30T10:26:57.548Z,13.65
2022-11-30T10:32:01.268Z,13.71
2022-11-30T10:37:03.288Z,13.53
2022-11-30T10:42:16.015Z,13.10
2022-11-30T10:47:22.607Z,13.91
2022-11-30T10:52:29.022Z,13.30
2022-11-30T10:57:32.392Z,13.22
2022-11-30T11:02:39.323Z,12.83
2022-11-30T11:07:45.585Z,13.04
2022-11-30T11:12:53.072Z,12.41
2022-11-30T11:18:12.841Z,13.59
2022-11-30T11:23:52.375Z,12.68
2022-11-30T11:28:57.004Z,12.58
2022-11-30T11:33:58.985Z,11.96
2022-11-30T11:39:01.671Z,12.35
2022-11-30T11:44:09.615Z,12.71
2022-11-30T11:49:32.608Z,12.12
2022-11-30T11:54:48.748Z,11.97
2022-11-30T12:00:01.186Z,12.65
2022-11-30T12:05:16.052Z,11.85
2022-11-30T12:10:52.297Z,10.48
2022-11-30T12:15:57.511Z,11.14
2022-11-30T12:21:14.661Z,11.78
2022-11-30T12:26:22.544Z,11.68
2022-11-30T12:31:40.150Z,11.62
2022-11-30T12:36:58.995Z,11.03
2022-11-30T12:42:40.163Z,11.94
2022-11-30T12:47:51.177Z,11.73
2022-11-30T12:53:20.274Z,11.94
2022-11-30T12:58:32.056Z,11.96
2022-11-30T13:03:41.952Z,14.26
2022-11-30T13:08:57.107Z,12.62
2022-11-30T13:14:00.835Z,11.64
2022-11-30T13:19:22.993Z,10.94
2022-11-30T13:24:35.544Z,10.89
2022-11-30T13:30:21.935Z,11.60
2022-11-30T13:35:29.795Z,10.61
2022-11-30T13:40:32.567Z,10.95
2022-11-30T13:45:36.412Z,11.22
2022-11-30T13:50:41.179Z,9.85
2022-11-30T13:55:43.179Z,9.69
2022-11-30T14:06:41.572Z,10.65
2022-11-30T14:11:45.726Z,11.66
2022-11-30T14:16:48.345Z,10.93
2022-11-30T14:21:50.248Z,11.83
2022-11-30T14:26:52.856Z,12.71
2022-11-30T14:32:00.452Z,13.42
2022-11-30T14:37:27.148Z,14.12
2022-11-30T14:42:31.073Z,14.07
2022-11-30T14:47:35.805Z,12.50
2022-11-30T14:53:22.133Z,13.71
2022-11-30T14:58:44.938Z,13.95
2022-11-30T15:03:49.520Z,13.50
2022-11-30T15:08:54.474Z,15.44
2022-11-30T15:14:07.280Z,15.04
2022-11-30T15:19:25.741Z,13.75
2022-11-30T15:24:29.663Z,14.58
2022-11-30T15:29:39.584Z,14.42
2022-11-30T15:34:46.776Z,13.01
2022-11-30T15:39:52.562Z,14.47
2022-11-30T15:45:28.222Z,15.44
2022-11-30T15:50:34.835Z,15.27
2022-11-30T15:55:39.728Z,15.27
2022-11-30T16:00:41.662Z,14.04
2022-11-30T16:05:57.063Z,13.72
2022-11-30T16:11:01.980Z,12.92
2022-11-30T16:16:13.744Z,13.56
2022-11-30T16:21:19.416Z,13.78
2022-11-30T16:26:43.677Z,14.79
2022-11-30T16:31:44.919Z,15.50
2022-11-30T16:36:47.029Z,17.17
2022-11-30T16:41:50.453Z,16.55
2022-11-30T16:46:54.002Z,17.91
2022-11-30T16:51:56.031Z,17.80
2022-11-30T16:56:57.981Z,17.53
2022-11-30T17:02:00.355Z,18.67
2022-11-30T17:07:03.352Z,18.33
2022-11-30T17:12:05.314Z,15.61
2022-11-30T17:17:07.586Z,14.44
2022-11-30T17:22:09.523Z,14.79
2022-11-30T17:27:12.421Z,14.57
2022-11-30T17:32:14.316Z,12.47
2022-11-30T17:37:16.337Z,11.87
2022-11-30T17:42:18.308Z,11.57
2022-11-30T17:47:22.158Z,10.65
2022-11-30T17:52:24.753Z,9.95
2022-11-30T17:57:26.811Z,10.62
2022-11-30T18:02:28.775Z,10.19
2022-11-30T18:07:30.824Z,9.92
2022-11-30T18:12:33.568Z,9.98
2022-11-30T18:17:35.743Z,9.40
2022-11-30T18:22:37.621Z,9.39
2022-11-30T18:27:39.603Z,9.02
2022-11-30T18:32:41.421Z,9.07
2022-11-30T18:37:44.054Z,9.58
2022-11-30T18:42:47.951Z,9.39
2022-11-30T18:47:50.064Z,10.00
2022-11-30T18:52:52.302Z,9.49
2022-11-30T18:57:54.358Z,9.79
2022-11-30T19:02:56.339Z,10.69
2022-11-30T19:08:07.608Z,11.24
2022-11-30T19:13:09.615Z,11.92
2022-11-30T19:18:11.637Z,12.87
2022-11-30T19:23:13.580Z,12.84
2022-11-30T19:28:15.799Z,13.60
2022-11-30T19:33:17.862Z,13.77
2022-11-30T19:38:19.908Z,13.89
2022-11-30T19:43:21.841Z,13.78
2022-11-30T19:48:23.773Z,14.54
2022-11-30T19:53:25.928Z,15.22
2022-11-30T19:58:30.374Z,14.94
2022-11-30T20:03:35.719Z,15.81
2022-11-30T20:08:38.456Z,16.30
2022-11-30T20:13:40.568Z,17.19
2022-11-30T20:18:46.382Z,19.39
2022-11-30T20:23:51.202Z,19.94
2022-11-30T20:28:53.765Z,20.73
2022-11-30T20:33:55.957Z,21.16
2022-11-30T20:38:59.280Z,21.02
2022-11-30T20:44:01.349Z,22.31
2022-11-30T20:49:11.067Z,21.37
2022-11-30T20:54:13.497Z,22.33
2022-11-30T20:59:19.577Z,23.21
2022-11-30T21:04:23.319Z,24.14
2022-11-30T21:09:25.305Z,24.05
2022-11-30T21:14:27.373Z,25.58
2022-11-30T21:19:29.453Z,25.37
2022-11-30T21:24:31.403Z,24.96
2022-11-30T21:29:33.582Z,25.62
2022-11-30T21:34:35.540Z,24.15
2022-11-30T21:39:37.568Z,25.56
2022-11-30T21:44:39.432Z,23.52
2022-11-30T21:49:41.406Z,25.17
2022-11-30T21:54:43.501Z,24.20
2022-11-30T21:59:45.728Z,24.82
2022-11-30T22:04:47.868Z,24.52
2022-11-30T22:09:49.972Z,23.09
2022-11-30T22:14:52.030Z,23.14
2022-11-30T22:19:53.932Z,23.89
2022-11-30T22:24:55.933Z,22.08
2022-11-30T22:29:57.960Z,21.92
2022-11-30T22:34:59.852Z,21.97
2022-11-30T22:40:01.739Z,21.38
2022-11-30T22:45:04.442Z,21.21
2022-11-30T22:50:09.970Z,20.76
2022-11-30T22:55:12.286Z,20.94
2022-11-30T23:00:16.071Z,21.35
2022-11-30T23:05:17.903Z,20.02
2022-11-30T23:10:19.869Z,20.36
2022-11-30T23:15:21.909Z,20.50
2022-11-30T23:20:23.843Z,20.48
2022-11-30T23:25:25.705Z,20.33
2022-11-30T23:30:27.608Z,20.87
2022-11-30T23:35:29.467Z,22.00
2022-11-30T23:40:31.796Z,22.21
2022-11-30T23:45:33.715Z,23.85
2022-11-30T23:50:35.948Z,23.89
2022-11-30T23:55:38.077Z,26.43
